Time;durP1;ratioP1;P1;durP2;ratioP2;P2;SDS_P1;SDS_P2;PMS_P1;PMS_P2;Temp;Humidity;BMP_temperature;BMP_pressure;BME280_temperature;BME280_humidity;BME280_pressure;Samples;Min_cycle;Max_cycle;Signal;HPM_P1;HPM_P2
2021/11/15 00:01:43;;;;;;;58.80;31.40;;;;;;;5.44;84.78;101884.13;88068;1287;82605;-62
2021/11/15 00:03:49;;;;;;;59.00;30.10;;;;;;;5.45;84.82;101885.15;88016;1288;96318;-63
2021/11/15 00:05:58;;;;;;;56.10;29.80;;;;;;;5.47;84.96;101885.84;88063;1287;87029;-71
2021/11/15 00:08:08;;;;;;;51.90;28.20;;;;;;;5.53;84.95;101889.71;88034;1287;95518;-71
2021/11/15 00:10:16;;;;;;;52.10;27.60;;;;;;;5.56;84.94;101886.41;88030;1282;79800;-62
2021/11/15 00:12:22;;;;;;;54.00;27.70;;;;;;;5.59;84.96;101889.55;88097;1288;83437;-65
2021/11/15 00:14:29;;;;;;;51.60;30.30;;;;;;;5.62;84.94;101889.63;88047;1282;97807;-62
2021/11/15 00:16:37;;;;;;;50.60;27.90;;;;;;;5.67;85.00;101891.96;88032;1282;85775;-69
2021/11/15 00:18:44;;;;;;;49.20;28.00;;;;;;;5.65;84.99;101899.09;88023;1288;95487;-70
2021/11/15 00:20:50;;;;;;;50.90;28.70;;;;;;;5.68;84.95;101899.02;88038;1286;78234;-62
2021/11/15 00:23:01;;;;;;;50.70;26.90;;;;;;;5.67;85.11;101902.30;88043;1288;82653;-62
2021/11/15 00:25:13;;;;;;;44.50;26.10;;;;;;;5.62;85.05;101904.54;88049;1288;98857;-65
2021/11/15 00:27:20;;;;;;;46.90;26.10;;;;;;;5.56;85.07;101903.52;88033;1288;88652;-70
2021/11/15 00:29:29;;;;;;;42.70;24.80;;;;;;;5.56;85.21;101908.90;88011;1287;95767;-70
2021/11/15 00:31:36;;;;;;;42.00;24.20;;;;;;;5.58;85.39;101909.81;88029;1288;82417;-70
2021/11/15 00:33:42;;;;;;;44.40;24.70;;;;;;;5.60;85.44;101910.40;88040;1288;81739;-70
2021/11/15 00:35:48;;;;;;;41.50;23.60;;;;;;;5.63;85.44;101911.95;87996;1288;98141;-62
2021/11/15 00:37:54;;;;;;;41.60;24.00;;;;;;;5.67;85.43;101909.77;88022;1288;87537;-62
2021/11/15 00:40:07;;;;;;;36.50;22.40;;;;;;;5.65;85.50;101908.89;88018;1288;94167;-62
2021/11/15 00:42:14;;;;;;;34.70;19.50;;;;;;;5.62;85.67;101907.03;88024;1288;79428;-66
2021/11/15 00:44:19;;;;;;;32.70;19.10;;;;;;;5.64;85.75;101909.04;88018;1288;83065;-62
2021/11/15 00:46:25;;;;;;;32.50;20.20;;;;;;;5.60;85.77;101909.51;88007;1282;95447;-70
2021/11/15 00:48:35;;;;;;;33.00;19.60;;;;;;;5.63;85.80;101909.27;88045;1288;87526;-70
2021/11/15 00:50:41;;;;;;;32.00;19.40;;;;;;;5.71;85.81;101913.64;88037;1288;95264;-70
2021/11/15 00:52:49;;;;;;;29.20;17.70;;;;;;;5.66;85.88;101913.33;88001;1288;80493;-70
2021/11/15 00:54:59;;;;;;;32.60;17.80;;;;;;;5.72;85.90;101914.09;88025;1288;82715;-70
2021/11/15 00:57:07;;;;;;;31.50;19.40;;;;;;;5.77;85.88;101911.38;88037;1284;96536;-70
2021/11/15 00:59:16;;;;;;;30.80;19.10;;;;;;;5.78;85.95;101912.71;88021;1288;89013;-71
2021/11/15 01:01:22;;;;;;;27.70;15.70;;;;;;;5.77;86.05;101914.91;88007;1291;94377;-70
2021/11/15 01:03:28;;;;;;;29.10;18.60;;;;;;;5.76;85.90;101912.81;88049;1288;81607;-70
2021/11/15 01:05:40;;;;;;;27.20;17.00;;;;;;;5.74;85.98;101911.59;88037;1288;83381;-72
2021/11/15 01:07:46;;;;;;;27.30;16.20;;;;;;;5.74;85.96;101914.23;88012;1288;97894;-70
2021/11/15 01:09:52;;;;;;;26.60;15.80;;;;;;;5.73;85.83;101915.58;88003;1288;89147;-70
2021/11/15 01:11:58;;;;;;;25.80;15.00;;;;;;;5.68;85.98;101915.30;88040;1288;95223;-63
2021/11/15 01:14:05;;;;;;;25.20;15.00;;;;;;;5.62;86.09;101916.27;88035;1283;79857;-62
2021/11/15 01:16:14;;;;;;;24.50;14.60;;;;;;;5.59;86.28;101912.39;88054;1288;82938;-70
2021/11/15 01:18:20;;;;;;;24.60;15.20;;;;;;;5.61;86.32;101916.02;88017;1288;98591;-71
2021/11/15 01:20:30;;;;;;;23.70;14.70;;;;;;;5.62;86.31;101910.19;88002;1288;87571;-70
2021/11/15 01:22:37;;;;;;;23.90;14.00;;;;;;;5.64;86.47;101910.08;87977;1282;93193;-70
2021/11/15 01:24:42;;;;;;;22.50;14.50;;;;;;;5.69;86.39;101910.17;88007;1287;79013;-70
2021/11/15 01:26:48;;;;;;;22.00;13.50;;;;;;;5.72;86.37;101908.88;88042;1288;80243;-63
2021/11/15 01:28:58;;;;;;;21.10;13.80;;;;;;;5.72;86.34;101911.55;88081;1288;97744;-63
2021/11/15 01:31:04;;;;;;;22.90;13.70;;;;;;;5.71;86.45;101912.91;88020;1288;87502;-71
2021/11/15 01:33:13;;;;;;;22.30;13.70;;;;;;;5.64;86.51;101912.54;88024;1287;93454;-71
2021/11/15 01:35:20;;;;;;;21.00;13.30;;;;;;;5.64;86.49;101914.86;88032;1282;80872;-71
2021/11/15 01:37:29;;;;;;;20.00;13.20;;;;;;;5.71;86.45;101913.77;88042;1288;81481;-70
2021/11/15 01:39:35;;;;;;;22.20;13.40;;;;;;;5.74;86.44;101917.11;88006;1288;96795;-71
2021/11/15 01:41:41;;;;;;;21.50;14.00;;;;;;;5.77;86.51;101919.59;88018;1287;89341;-63
2021/11/15 01:43:47;;;;;;;22.20;14.60;;;;;;;5.80;86.44;101925.91;87999;1282;94414;-63
2021/11/15 01:45:53;;;;;;;22.80;14.50;;;;;;;5.73;86.55;101924.51;88014;1288;80213;-71
2021/11/15 01:48:02;;;;;;;23.50;14.80;;;;;;;5.71;86.61;101923.42;88030;1282;80521;-71
2021/11/15 01:50:17;;;;;;;23.70;15.00;;;;;;;5.71;86.54;101922.02;87999;1279;96540;-64
2021/11/15 01:52:24;;;;;;;24.70;14.50;;;;;;;5.70;86.53;101922.23;87991;1288;87653;-64
2021/11/15 01:54:30;;;;;;;21.20;12.20;;;;;;;5.68;86.54;101922.61;88039;1283;92893;-63
2021/11/15 01:56:39;;;;;;;24.20;14.00;;;;;;;5.66;86.59;101926.50;88014;1286;82091;-71
2021/11/15 01:58:49;;;;;;;22.60;13.20;;;;;;;5.62;86.66;101925.91;88046;1285;82659;-71
2021/11/15 02:01:00;;;;;;;21.30;12.70;;;;;;;5.62;86.75;101926.08;88001;1284;96801;-62
2021/11/15 02:03:10;;;;;;;19.50;11.80;;;;;;;5.64;86.67;101925.80;88011;1288;88677;-63
2021/11/15 02:05:20;;;;;;;20.20;11.40;;;;;;;5.68;86.70;101926.02;88024;1282;94860;-63
2021/11/15 02:07:26;;;;;;;20.20;12.10;;;;;;;5.71;86.63;101927.87;88063;1285;81821;-63
2021/11/15 02:09:32;;;;;;;20.50;12.10;;;;;;;5.72;86.67;101928.73;88094;1285;83327;-63
2021/11/15 02:11:38;;;;;;;22.00;12.50;;;;;;;5.75;86.84;101927.95;88049;1285;98414;-63
2021/11/15 02:13:46;;;;;;;21.20;12.30;;;;;;;5.73;86.89;101931.98;88033;1285;86483;-63
2021/11/15 02:15:53;;;;;;;21.10;12.50;;;;;;;5.66;87.04;101934.01;88039;1285;95066;-63
2021/11/15 02:17:59;;;;;;;23.60;13.40;;;;;;;5.63;87.05;101931.20;88050;1285;81679;-63
2021/11/15 02:20:15;;;;;;;24.50;12.20;;;;;;;5.69;87.00;101932.21;88068;1285;81157;-64
2021/11/15 02:22:21;;;;;;;26.70;14.10;;;;;;;5.69;87.05;101929.67;87990;1282;96294;-63
2021/11/15 02:24:31;;;;;;;25.00;13.10;;;;;;;5.69;87.29;101930.52;88003;1288;88889;-62
2021/11/15 02:26:40;;;;;;;23.50;13.10;;;;;;;5.73;87.06;101929.70;88002;1287;93647;-71
2021/11/15 02:28:49;;;;;;;21.20;11.90;;;;;;;5.79;87.14;101927.08;87991;1284;81798;-70
2021/11/15 02:30:55;;;;;;;21.60;12.30;;;;;;;5.79;87.03;101926.23;88036;1281;79660;-71
2021/11/15 02:33:01;;;;;;;22.20;13.70;;;;;;;5.79;86.94;101926.58;88011;1289;97754;-71
2021/11/15 02:35:10;;;;;;;22.20;13.50;;;;;;;5.84;86.94;101931.36;88105;1285;88730;-67
2021/11/15 02:37:16;;;;;;;23.50;13.40;;;;;;;5.83;87.01;101934.61;88026;1283;94523;-63
2021/11/15 02:39:22;;;;;;;27.70;15.40;;;;;;;5.87;86.95;101935.20;88001;1285;79064;-63
2021/11/15 02:41:32;;;;;;;24.70;14.00;;;;;;;5.93;86.96;101935.98;88111;1285;81139;-63
2021/11/15 02:43:38;;;;;;;27.80;14.00;;;;;;;5.94;86.86;101940.53;88033;1278;96201;-63
2021/11/15 02:45:45;;;;;;;32.00;15.80;;;;;;;5.97;86.76;101942.10;88067;1285;89050;-71
2021/11/15 02:47:51;;;;;;;28.60;14.00;;;;;;;5.95;86.87;101942.08;88093;1285;94195;-71
2021/11/15 02:49:58;;;;;;;27.70;14.50;;;;;;;5.94;86.98;101945.63;88090;1285;77826;-71
2021/11/15 02:52:05;;;;;;;26.90;14.10;;;;;;;5.88;86.93;101944.41;88057;1285;81748;-71
2021/11/15 02:54:16;;;;;;;29.80;15.80;;;;;;;5.81;86.99;101949.05;88067;1285;99519;-71
2021/11/15 02:56:25;;;;;;;25.10;13.70;;;;;;;5.80;86.95;101946.99;88074;1282;86822;-71
2021/11/15 02:58:32;;;;;;;28.10;14.70;;;;;;;5.82;86.83;101950.48;88065;1282;94447;-71
2021/11/15 03:00:44;;;;;;;28.70;14.60;;;;;;;5.77;86.88;101946.54;88055;1285;81222;-71
2021/11/15 03:02:50;;;;;;;28.60;14.90;;;;;;;5.71;86.99;101942.73;88038;1281;81615;-71
2021/11/15 03:04:57;;;;;;;28.70;14.60;;;;;;;5.65;87.24;101943.58;88059;1285;97989;-70
2021/11/15 03:07:07;;;;;;;31.30;14.90;;;;;;;5.69;87.08;101945.07;88078;1285;89296;-71
2021/11/15 03:09:16;;;;;;;28.80;15.00;;;;;;;5.71;87.12;101945.24;88042;1285;96147;-71
2021/11/15 03:11:26;;;;;;;30.40;15.30;;;;;;;5.73;87.12;101949.38;88096;1289;81562;-63
2021/11/15 03:13:38;;;;;;;34.00;15.70;;;;;;;5.77;87.23;101952.45;88021;1288;82856;-63
2021/11/15 03:15:50;;;;;;;31.80;15.40;;;;;;;5.76;87.21;101955.38;88012;1285;98704;-72
2021/11/15 03:18:03;;;;;;;32.60;14.80;;;;;;;5.82;87.24;101954.74;88040;1281;89166;-71
2021/11/15 03:20:11;;;;;;;35.00;15.80;;;;;;;5.78;87.33;101954.30;88047;1285;93558;-69
2021/11/15 03:22:20;;;;;;;36.50;15.90;;;;;;;5.81;87.18;101953.56;88042;1285;82513;-71
2021/11/15 03:24:29;;;;;;;38.50;17.20;;;;;;;5.82;87.27;101959.77;88071;1285;83300;-71
2021/11/15 03:26:38;;;;;;;35.10;16.50;;;;;;;5.78;87.41;101960.94;88055;1285;97686;-70
2021/11/15 03:28:50;;;;;;;37.20;16.40;;;;;;;5.79;87.32;101958.58;88018;1288;87135;-71
2021/11/15 03:31:01;;;;;;;34.60;16.20;;;;;;;5.79;87.46;101957.79;88027;1282;94002;-71
2021/11/15 03:33:08;;;;;;;34.20;16.40;;;;;;;5.81;87.24;101956.74;88001;1288;82012;-70
2021/11/15 03:35:18;;;;;;;31.20;16.20;;;;;;;5.79;87.27;101957.33;88032;1282;82451;-63
2021/11/15 03:37:24;;;;;;;34.00;15.50;;;;;;;5.83;87.25;101957.68;88092;1281;95654;-63
2021/11/15 03:39:34;;;;;;;37.80;17.20;;;;;;;5.85;87.19;101959.54;88109;1280;85773;-63
2021/11/15 03:41:45;;;;;;;40.00;16.10;;;;;;;5.84;87.28;101959.92;88059;1285;94012;-72
2021/11/15 03:43:52;;;;;;;40.40;17.30;;;;;;;5.84;87.26;101963.91;88044;1285;81644;-71
2021/11/15 03:45:59;;;;;;;39.00;16.90;;;;;;;5.81;87.20;101962.29;88070;1278;79942;-71
2021/11/15 03:48:11;;;;;;;35.10;16.60;;;;;;;5.80;87.31;101961.86;88063;1285;98526;-71
2021/11/15 03:50:21;;;;;;;32.20;16.40;;;;;;;5.79;87.29;101957.63;88086;1280;86139;-71
2021/11/15 03:52:27;;;;;;;36.70;16.80;;;;;;;5.84;87.14;101961.92;88047;1285;95826;-71
2021/11/15 03:54:33;;;;;;;40.80;18.10;;;;;;;5.83;87.21;101969.65;88034;1285;82848;-70
2021/11/15 03:56:39;;;;;;;36.90;17.10;;;;;;;5.85;87.19;101968.30;88080;1285;83355;-63
2021/11/15 03:58:49;;;;;;;36.10;17.10;;;;;;;5.84;87.28;101966.39;88057;1281;97971;-63
2021/11/15 04:00:57;;;;;;;41.30;17.00;;;;;;;5.85;87.24;101968.62;88083;1283;87037;-71
2021/11/15 04:03:17;;;;;;;43.90;17.90;;;;;;;5.88;87.14;101972.17;88070;1281;94908;-70
2021/11/15 04:05:30;;;;;;;39.90;18.20;;;;;;;5.81;87.29;101972.64;88063;1285;78791;-70
2021/11/15 04:07:41;;;;;;;40.20;19.10;;;;;;;5.82;87.26;101975.41;88066;1285;81054;-70
2021/11/15 04:09:47;;;;;;;40.00;19.00;;;;;;;5.74;87.45;101975.39;88068;1282;99031;-71
2021/11/15 04:11:54;;;;;;;46.70;19.90;;;;;;;5.76;87.42;101979.52;88074;1285;88003;-71
2021/11/15 04:14:05;;;;;;;44.40;19.50;;;;;;;5.74;87.45;101981.83;88046;1285;93172;-71
2021/11/15 04:16:15;;;;;;;45.00;20.50;;;;;;;5.74;87.33;101979.02;88091;1285;79888;-66
2021/11/15 04:18:24;;;;;;;42.80;19.00;;;;;;;5.71;87.38;101984.59;88065;1285;83340;-66
2021/11/15 04:20:31;;;;;;;42.80;18.60;;;;;;;5.68;87.38;101984.61;88050;1285;98311;-73
2021/11/15 04:22:40;;;;;;;44.60;20.80;;;;;;;5.61;87.37;101986.80;88035;1284;87416;-73
2021/11/15 04:24:46;;;;;;;47.50;20.50;;;;;;;5.59;87.41;101985.69;88036;1283;94026;-72
2021/11/15 04:26:57;;;;;;;50.00;21.40;;;;;;;5.61;87.43;101982.48;88084;1285;80459;-66
2021/11/15 04:29:04;;;;;;;50.70;21.60;;;;;;;5.59;87.56;101983.36;88103;1280;81158;-66
2021/11/15 04:31:11;;;;;;;51.70;20.30;;;;;;;5.58;87.60;101980.38;88065;1285;98868;-73
2021/11/15 04:33:17;;;;;;;51.40;21.50;;;;;;;5.60;87.54;101977.25;88077;1285;87884;-73
2021/11/15 04:35:23;;;;;;;49.90;21.90;;;;;;;5.57;87.58;101986.93;88040;1280;93047;-73
2021/11/15 04:37:31;;;;;;;47.00;20.30;;;;;;;5.61;87.56;101985.23;88064;1285;79764;-73
2021/11/15 04:39:37;;;;;;;48.10;21.80;;;;;;;5.59;87.68;101989.80;88075;1283;81950;-72
2021/11/15 04:41:44;;;;;;;48.80;21.40;;;;;;;5.61;87.61;101987.72;88065;1281;96890;-66
2021/11/15 04:43:53;;;;;;;46.20;22.30;;;;;;;5.58;87.73;101991.27;88082;1282;88109;-66
2021/11/15 04:45:59;;;;;;;54.40;22.40;;;;;;;5.58;87.80;101991.70;88056;1288;95934;-73
2021/11/15 04:48:07;;;;;;;49.60;22.00;;;;;;;5.60;87.74;101992.77;88068;1280;79309;-75
2021/11/15 04:50:14;;;;;;;47.90;21.50;;;;;;;5.59;87.82;101992.27;88062;1285;82333;-67
2021/11/15 04:52:21;;;;;;;49.80;22.60;;;;;;;5.54;87.76;101989.11;88036;1285;99021;-66
2021/11/15 04:54:28;;;;;;;49.30;22.80;;;;;;;5.56;87.91;101993.26;88058;1285;88839;-68
2021/11/15 04:56:34;;;;;;;46.20;21.60;;;;;;;5.56;87.97;101992.39;88061;1284;93892;-72
2021/11/15 04:58:44;;;;;;;45.10;22.50;;;;;;;5.52;87.95;101991.64;88046;1285;82677;-72
2021/11/15 05:00:52;;;;;;;46.70;21.60;;;;;;;5.48;88.22;101991.60;88057;1285;82282;-72
2021/11/15 05:02:59;;;;;;;49.80;22.60;;;;;;;5.46;88.17;101996.70;88076;1280;97426;-73
2021/11/15 05:05:09;;;;;;;46.50;22.00;;;;;;;5.39;88.17;102000.27;88054;1279;86057;-70
2021/11/15 05:07:15;;;;;;;45.80;21.60;;;;;;;5.42;88.19;102000.42;88094;1285;97163;-72
2021/11/15 05:09:21;;;;;;;50.30;23.70;;;;;;;5.49;88.18;102003.11;88035;1285;81283;-72
2021/11/15 05:11:30;;;;;;;54.20;24.80;;;;;;;5.50;88.19;102010.19;88033;1285;82745;-73
2021/11/15 05:13:36;;;;;;;51.70;23.00;;;;;;;5.49;88.24;102012.90;88072;1285;97521;-72
2021/11/15 05:15:42;;;;;;;55.00;24.20;;;;;;;5.56;88.08;102013.77;88072;1285;88637;-65
2021/11/15 05:17:50;;;;;;;56.30;24.70;;;;;;;5.55;88.08;102011.75;88044;1281;94513;-64
2021/11/15 05:19:56;;;;;;;61.70;25.80;;;;;;;5.59;88.09;102010.71;88060;1283;80150;-64
2021/11/15 05:22:03;;;;;;;63.80;25.70;;;;;;;5.57;88.01;102014.43;88078;1285;81240;-72
2021/11/15 05:24:09;;;;;;;57.60;25.80;;;;;;;5.57;88.02;102011.59;88055;1282;97314;-72
2021/11/15 05:26:17;;;;;;;61.80;27.40;;;;;;;5.59;87.94;102011.05;88075;1288;87868;-64
2021/11/15 05:28:24;;;;;;;61.80;27.20;;;;;;;5.59;88.04;102014.14;88045;1285;95347;-66
2021/11/15 05:30:31;;;;;;;62.20;27.80;;;;;;;5.60;87.98;102014.91;88038;1285;81566;-65
2021/11/15 05:32:40;;;;;;;65.40;28.00;;;;;;;5.60;88.06;102016.75;88054;1285;82815;-64
2021/11/15 05:34:50;;;;;;;60.30;27.40;;;;;;;5.55;88.02;102023.75;88075;1285;99174;-64
2021/11/15 05:36:56;;;;;;;65.20;27.40;;;;;;;5.50;88.12;102023.91;88040;1285;87098;-66
2021/11/15 05:39:03;;;;;;;63.40;28.30;;;;;;;5.48;88.22;102027.45;88012;1281;93520;-65
2021/11/15 05:41:08;;;;;;;65.40;27.70;;;;;;;5.46;88.14;102034.62;88101;1285;79511;-72
2021/11/15 05:43:14;;;;;;;63.80;26.30;;;;;;;5.44;88.33;102036.39;88065;1285;82719;-70
2021/11/15 05:45:21;;;;;;;66.80;28.90;;;;;;;5.41;88.33;102036.22;88015;1285;98776;-69
2021/11/15 05:47:27;;;;;;;67.50;27.40;;;;;;;5.39;88.45;102038.02;88082;1285;88908;-72
2021/11/15 05:49:33;;;;;;;64.90;28.20;;;;;;;5.38;88.42;102044.50;88046;1273;92746;-72
2021/11/15 05:51:39;;;;;;;60.90;28.40;;;;;;;5.41;88.30;102048.58;88094;1284;82108;-67
2021/11/15 05:53:48;;;;;;;69.00;28.90;;;;;;;5.40;88.23;102051.48;88075;1285;83086;-67
2021/11/15 05:55:58;;;;;;;67.20;28.40;;;;;;;5.39;88.29;102052.28;88108;1285;97452;-72
2021/11/15 05:58:09;;;;;;;70.70;30.20;;;;;;;5.42;88.23;102052.73;88011;1288;88530;-72
2021/11/15 06:00:24;;;;;;;63.20;29.50;;;;;;;5.38;88.42;102059.35;88088;1288;93659;-72
2021/11/15 06:02:33;;;;;;;68.00;29.50;;;;;;;5.32;88.28;102061.15;88056;1287;79825;-72
2021/11/15 06:04:42;;;;;;;63.30;28.80;;;;;;;5.36;88.20;102064.83;88064;1288;81509;-72
2021/11/15 06:06:52;;;;;;;64.50;28.80;;;;;;;5.36;88.17;102066.94;88063;1276;95641;-67
2021/11/15 06:08:59;;;;;;;63.60;29.40;;;;;;;5.34;88.24;102073.16;88053;1288;86514;-67
2021/11/15 06:11:06;;;;;;;66.40;28.60;;;;;;;5.31;88.27;102069.44;88041;1288;95161;-67
2021/11/15 06:13:15;;;;;;;65.10;29.60;;;;;;;5.35;88.28;102072.42;87405;1280;939269;-68
2021/11/15 06:15:23;;;;;;;67.90;28.70;;;;;;;5.35;88.21;102071.35;88101;1280;80146;-67
2021/11/15 06:17:31;;;;;;;69.60;29.90;;;;;;;5.35;88.27;102076.85;88076;1285;99464;-68
2021/11/15 06:19:40;;;;;;;65.90;29.10;;;;;;;5.32;88.42;102078.01;88093;1285;87207;-67
2021/11/15 06:21:48;;;;;;;63.90;29.60;;;;;;;5.32;88.24;102076.38;88139;1285;93607;-67
2021/11/15 06:23:54;;;;;;;68.10;29.90;;;;;;;5.33;88.16;102077.92;88142;1285;80154;-67
2021/11/15 06:26:33;;;;;;;61.90;28.50;;;;;;;5.34;88.11;102077.84;88115;1285;81109;-67
2021/11/15 06:28:46;;;;;;;65.50;29.70;;;;;;;5.36;88.08;102084.67;88122;1285;98344;-68
2021/11/15 06:31:11;;;;;;;62.40;29.80;;;;;;;5.34;88.13;102086.95;88015;1288;87752;-68
2021/11/15 06:33:25;;;;;;;56.60;28.10;;;;;;;5.38;88.08;102086.63;88095;1288;92377;-68
2021/11/15 06:35:32;;;;;;;63.50;29.90;;;;;;;5.33;88.10;102091.65;88045;1288;82326;-67
2021/11/15 06:37:40;;;;;;;61.20;30.10;;;;;;;5.26;88.10;102094.46;88068;1288;81338;-66
2021/11/15 06:39:51;;;;;;;58.10;28.20;;;;;;;5.23;88.14;102096.35;88065;1283;97570;-66
2021/11/15 06:41:58;;;;;;;63.10;29.10;;;;;;;5.28;88.09;102100.25;88069;1288;87740;-71
2021/11/15 06:44:07;;;;;;;62.20;30.60;;;;;;;5.28;88.07;102100.23;88102;1288;94082;-71
2021/11/15 06:46:14;;;;;;;61.30;28.70;;;;;;;5.31;87.92;102097.50;88107;1282;79519;-71
2021/11/15 06:48:23;;;;;;;59.80;29.10;;;;;;;5.36;87.90;102100.92;88042;1281;81864;-72
2021/11/15 06:50:33;;;;;;;54.60;27.70;;;;;;;5.36;87.90;102104.27;87991;1287;97730;-70
2021/11/15 06:52:43;;;;;;;58.10;29.80;;;;;;;5.36;87.73;102099.66;88059;1285;88358;-70
2021/11/15 06:54:58;;;;;;;57.20;30.70;;;;;;;5.36;87.74;102104.66;88063;1285;92128;-69
2021/11/15 06:57:06;;;;;;;54.30;30.40;;;;;;;5.29;87.75;102100.89;88014;1288;81735;-68
2021/11/15 06:59:18;;;;;;;63.00;31.80;;;;;;;5.31;87.69;102104.30;88109;1285;82397;-68
2021/11/15 07:01:27;;;;;;;58.80;29.20;;;;;;;5.37;87.50;102105.30;88123;1285;97860;-68
2021/11/15 07:03:34;;;;;;;56.90;29.30;;;;;;;5.39;87.48;102100.34;88026;1288;86306;-68
2021/11/15 07:05:44;;;;;;;55.00;29.00;;;;;;;5.37;87.51;102103.37;88065;1282;92566;-73
2021/11/15 07:07:55;;;;;;;52.20;28.60;;;;;;;5.31;87.48;102106.98;88092;1273;79168;-72
2021/11/15 07:10:04;;;;;;;50.10;27.20;;;;;;;5.27;87.39;102109.23;88064;1285;82750;-71
2021/11/15 07:12:12;;;;;;;57.70;30.40;;;;;;;5.24;87.52;102106.46;88089;1285;96773;-68
2021/11/15 07:14:18;;;;;;;51.80;27.10;;;;;;;5.25;87.40;102104.94;88126;1291;88976;-68
2021/11/15 07:16:26;;;;;;;51.30;27.10;;;;;;;5.25;87.34;102107.27;88005;1288;94070;-72
2021/11/15 07:18:33;;;;;;;55.60;27.90;;;;;;;5.29;87.34;102104.13;88088;1285;82321;-72
2021/11/15 07:20:41;;;;;;;54.20;29.40;;;;;;;5.24;87.40;102102.70;88064;1287;81726;-71
2021/11/15 07:22:51;;;;;;;49.70;28.40;;;;;;;5.25;87.31;102104.79;88033;1288;98854;-71
2021/11/15 07:24:58;;;;;;;58.50;28.30;;;;;;;5.30;87.34;102108.10;88034;1288;89071;-71
2021/11/15 07:27:08;;;;;;;48.00;28.00;;;;;;;5.31;87.31;102108.74;88060;1288;94165;-70
2021/11/15 07:29:18;;;;;;;54.40;28.70;;;;;;;5.28;87.30;102112.36;88055;1283;79476;-71
2021/11/15 07:31:27;;;;;;;48.30;26.90;;;;;;;5.31;87.26;102115.39;88067;1280;80679;-69
2021/11/15 07:33:38;;;;;;;50.70;28.60;;;;;;;5.32;87.17;102113.92;88119;1285;99605;-68
2021/11/15 07:35:45;;;;;;;58.80;30.20;;;;;;;5.31;87.13;102111.95;88095;1285;87620;-70
2021/11/15 07:37:54;;;;;;;53.00;30.70;;;;;;;5.31;87.05;102111.62;88075;1281;95676;-72
2021/11/15 07:40:06;;;;;;;51.70;28.20;;;;;;;5.27;87.03;102105.15;87999;1288;77262;-71
2021/11/15 07:42:20;;;;;;;51.00;27.30;;;;;;;5.25;86.99;102104.80;88098;1282;82462;-72
2021/11/15 07:44:29;;;;;;;51.00;28.10;;;;;;;5.22;86.85;102105.17;88068;1288;101404;-72
2021/11/15 07:46:43;;;;;;;50.90;27.20;;;;;;;5.24;86.94;102111.44;88042;1289;89366;-67
2021/11/15 07:48:53;;;;;;;50.40;27.90;;;;;;;5.26;86.91;102105.04;88082;1285;94874;-68
2021/11/15 07:51:02;;;;;;;46.80;27.20;;;;;;;5.26;86.88;102106.11;88075;1283;79919;-71
2021/11/15 07:53:15;;;;;;;48.70;26.60;;;;;;;5.30;86.92;102107.25;88036;1291;83569;-71
2021/11/15 07:55:22;;;;;;;52.50;27.80;;;;;;;5.28;86.93;102108.09;88114;1285;97763;-70
2021/11/15 07:57:28;;;;;;;48.60;26.10;;;;;;;5.34;86.83;102109.46;88117;1285;88424;-70
2021/11/15 07:59:36;;;;;;;45.70;27.00;;;;;;;5.38;86.85;102111.66;88058;1285;94361;-69
2021/11/15 08:01:43;;;;;;;50.50;27.00;;;;;;;5.36;86.88;102108.92;88100;1289;79072;-70
2021/11/15 08:03:53;;;;;;;51.30;26.90;;;;;;;5.40;86.87;102113.15;88091;1285;81939;-72
2021/11/15 08:06:01;;;;;;;51.80;28.40;;;;;;;5.42;86.83;102111.19;88042;1287;100193;-71
2021/11/15 08:08:09;;;;;;;46.30;27.90;;;;;;;5.48;86.78;102115.16;88078;1276;86327;-69
2021/11/15 08:10:20;;;;;;;46.40;26.70;;;;;;;5.50;86.60;102115.95;88097;1289;95893;-71
2021/11/15 08:12:36;;;;;;;44.90;26.90;;;;;;;5.51;86.47;102115.87;88078;1285;78283;-69
2021/11/15 08:14:43;;;;;;;45.80;26.20;;;;;;;5.44;86.53;102119.84;88062;1284;81120;-70
2021/11/15 08:16:53;;;;;;;44.60;25.70;;;;;;;5.45;86.48;102117.24;88086;1281;99053;-69
2021/11/15 08:19:03;;;;;;;50.40;26.70;;;;;;;5.47;86.30;102120.25;88110;1285;88623;-68
2021/11/15 08:21:13;;;;;;;47.50;26.20;;;;;;;5.41;86.24;102123.77;88059;1285;94888;-68
2021/11/15 08:23:22;;;;;;;49.10;25.90;;;;;;;5.40;86.40;102126.33;88098;1285;82248;-67
2021/11/15 08:26:28;;;;;;;43.70;26.10;;;;;;;5.46;86.30;102122.15;88136;1291;80912;-70
2021/11/15 08:28:37;;;;;;;;;;;;;;;5.50;86.32;102120.60;88083;1285;99050;-68
2021/11/15 08:30:43;;;;;;;41.40;23.70;;;;;;;5.50;86.31;102117.71;88080;1282;86418;-68
2021/11/15 08:32:52;;;;;;;42.20;24.10;;;;;;;5.57;86.31;102121.80;88034;1288;94296;-68
2021/11/15 08:34:59;;;;;;;43.30;26.40;;;;;;;5.57;86.14;102123.27;88035;1288;78642;-68
2021/11/15 08:37:09;;;;;;;44.50;26.40;;;;;;;5.56;86.23;102123.19;88073;1291;80858;-69
2021/11/15 08:39:20;;;;;;;44.30;27.20;;;;;;;5.52;86.21;102122.95;88022;1288;98265;-68
2021/11/15 08:41:31;;;;;;;44.40;27.60;;;;;;;5.54;86.20;102124.36;88048;1288;88078;-71
2021/11/15 08:43:40;;;;;;;47.10;26.80;;;;;;;5.50;86.13;102124.73;88024;1288;94897;-70
2021/11/15 08:45:46;;;;;;;41.90;24.50;;;;;;;5.53;86.13;102127.33;88011;1287;79549;-71
2021/11/15 08:47:57;;;;;;;43.10;24.80;;;;;;;5.57;85.96;102128.42;88050;1288;82621;-70
2021/11/15 08:50:08;;;;;;;44.60;25.80;;;;;;;5.59;85.98;102130.23;88031;1283;95372;-70
2021/11/15 08:52:17;;;;;;;43.70;25.20;;;;;;;5.52;85.86;102132.43;87987;1283;89142;-69
2021/11/15 08:54:24;;;;;;;40.80;24.40;;;;;;;5.50;85.94;102128.27;88013;1290;93470;-70
2021/11/15 08:56:30;;;;;;;41.30;23.60;;;;;;;5.54;85.96;102125.63;88051;1287;80131;-71
2021/11/15 08:58:38;;;;;;;40.00;22.90;;;;;;;5.52;85.95;102127.76;88007;1288;83567;-70
2021/11/15 09:00:45;;;;;;;42.00;23.80;;;;;;;5.55;85.88;102124.88;88029;1285;96168;-70
2021/11/15 09:02:52;;;;;;;42.50;24.30;;;;;;;5.56;85.86;102124.09;88036;1289;88914;-69
2021/11/15 09:04:59;;;;;;;40.30;24.10;;;;;;;5.60;85.77;102121.41;88040;1288;94397;-69
2021/11/15 09:07:06;;;;;;;41.40;24.40;;;;;;;5.64;85.76;102122.06;88024;1282;79012;-70
2021/11/15 09:09:17;;;;;;;46.50;26.90;;;;;;;5.66;85.51;102121.52;88078;1288;83279;-70
2021/11/15 09:11:25;;;;;;;41.70;24.50;;;;;;;5.69;85.55;102123.11;88080;1288;98563;-70
2021/11/15 09:13:35;;;;;;;45.10;25.60;;;;;;;5.71;85.61;102126.66;88053;1287;89437;-70
2021/11/15 09:15:41;;;;;;;42.30;24.70;;;;;;;5.75;85.45;102128.66;88030;1287;95202;-70
2021/11/15 09:17:49;;;;;;;38.10;23.50;;;;;;;5.76;85.26;102127.58;88041;1291;81819;-70
2021/11/15 09:19:58;;;;;;;38.50;23.00;;;;;;;5.75;85.27;102127.93;88030;1290;82781;-69
2021/11/15 09:22:08;;;;;;;38.80;22.90;;;;;;;5.69;85.33;102126.44;88031;1288;98921;-70
2021/11/15 09:24:20;;;;;;;43.10;25.30;;;;;;;5.74;85.35;102130.02;88001;1288;87382;-70
2021/11/15 09:26:27;;;;;;;40.10;25.00;;;;;;;5.80;85.29;102129.04;87990;1280;92558;-69
2021/11/15 09:28:33;;;;;;;40.30;25.80;;;;;;;5.79;85.31;102131.27;88045;1288;79662;-68
2021/11/15 09:30:42;;;;;;;47.10;28.30;;;;;;;5.76;85.41;102129.13;87998;1287;82044;-68
2021/11/15 09:32:51;;;;;;;45.10;27.60;;;;;;;5.76;85.32;102127.71;88026;1288;99023;-68
2021/11/15 09:34:56;;;;;;;39.90;23.90;;;;;;;5.79;85.18;102128.41;88065;1288;89268;-68
2021/11/15 09:37:05;;;;;;;36.70;23.10;;;;;;;5.75;85.03;102126.86;88045;1288;94204;-69
2021/11/15 09:39:11;;;;;;;41.40;24.20;;;;;;;5.74;85.09;102124.85;88061;1291;78958;-70
2021/11/15 09:41:17;;;;;;;39.70;23.10;;;;;;;5.74;84.90;102123.61;88104;1288;82482;-68
2021/11/15 09:43:23;;;;;;;36.10;22.50;;;;;;;5.74;84.71;102123.41;88043;1288;99284;-68
2021/11/15 09:45:32;;;;;;;41.30;23.20;;;;;;;5.67;84.55;102127.48;87952;1283;87502;-69
2021/11/15 09:47:40;;;;;;;39.40;22.40;;;;;;;5.56;84.28;102123.59;88008;1288;95481;-69
2021/11/15 09:49:49;;;;;;;41.40;24.00;;;;;;;5.62;84.45;102129.36;88035;1288;78258;-69
2021/11/15 09:51:59;;;;;;;57.60;31.00;;;;;;;5.70;84.66;102128.71;88039;1288;82041;-68